sensor_id;sensor_type;location;lat;lon;timestamp;P1;durP1;ratioP1;P2;durP2;ratioP2
10884;SDS011;5495;53.252;10.390;2022-10-31T00:01:00;16.57;;;8.70;;
10884;SDS011;5495;53.252;10.390;2022-10-31T00:03:28;30.70;;;9.37;;
10884;SDS011;5495;53.252;10.390;2022-10-31T00:05:57;16.17;;;9.07;;
10884;SDS011;5495;53.252;10.390;2022-10-31T00:08:26;12.93;;;8.43;;
10884;SDS011;5495;53.252;10.390;2022-10-31T00:10:54;16.90;;;8.43;;
10884;SDS011;5495;53.252;10.390;2022-10-31T00:13:21;18.40;;;8.40;;
10884;SDS011;5495;53.252;10.390;2022-10-31T00:15:49;10.73;;;7.87;;
10884;SDS011;5495;53.252;10.390;2022-10-31T00:18:16;16.57;;;8.63;;
10884;SDS011;5495;53.252;10.390;2022-10-31T00:20:43;17.03;;;8.00;;
10884;SDS011;5495;53.252;10.390;2022-10-31T00:23:13;14.13;;;7.60;;
10884;SDS011;5495;53.252;10.390;2022-10-31T00:25:41;13.50;;;7.30;;
10884;SDS011;5495;53.252;10.390;2022-10-31T00:28:08;14.57;;;7.50;;
10884;SDS011;5495;53.252;10.390;2022-10-31T00:30:38;13.60;;;7.47;;
10884;SDS011;5495;53.252;10.390;2022-10-31T00:33:05;18.20;;;7.50;;
10884;SDS011;5495;53.252;10.390;2022-10-31T00:35:33;14.77;;;7.50;;
10884;SDS011;5495;53.252;10.390;2022-10-31T00:38:00;12.30;;;6.73;;
10884;SDS011;5495;53.252;10.390;2022-10-31T00:40:29;16.57;;;6.80;;
10884;SDS011;5495;53.252;10.390;2022-10-31T00:42:57;12.07;;;6.53;;
10884;SDS011;5495;53.252;10.390;2022-10-31T00:45:24;11.30;;;6.80;;
10884;SDS011;5495;53.252;10.390;2022-10-31T00:47:52;18.07;;;7.27;;
10884;SDS011;5495;53.252;10.390;2022-10-31T00:50:19;12.63;;;6.43;;
10884;SDS011;5495;53.252;10.390;2022-10-31T00:52:46;13.20;;;6.67;;
10884;SDS011;5495;53.252;10.390;2022-10-31T00:55:14;14.50;;;7.10;;
10884;SDS011;5495;53.252;10.390;2022-10-31T00:57:43;7.10;;;5.70;;
10884;SDS011;5495;53.252;10.390;2022-10-31T01:00:13;10.73;;;6.20;;
10884;SDS011;5495;53.252;10.390;2022-10-31T01:02:41;12.93;;;6.17;;
10884;SDS011;5495;53.252;10.390;2022-10-31T01:05:08;14.33;;;6.10;;
10884;SDS011;5495;53.252;10.390;2022-10-31T01:07:35;15.50;;;6.50;;
10884;SDS011;5495;53.252;10.390;2022-10-31T01:10:04;13.67;;;5.87;;
10884;SDS011;5495;53.252;10.390;2022-10-31T01:12:35;15.10;;;6.80;;
10884;SDS011;5495;53.252;10.390;2022-10-31T01:15:05;9.10;;;6.03;;
10884;SDS011;5495;53.252;10.390;2022-10-31T01:17:33;16.13;;;6.10;;
10884;SDS011;5495;53.252;10.390;2022-10-31T01:20:01;12.63;;;6.03;;
10884;SDS011;5495;53.252;10.390;2022-10-31T01:22:28;11.37;;;5.70;;
10884;SDS011;5495;53.252;10.390;2022-10-31T01:24:56;14.73;;;6.17;;
10884;SDS011;5495;53.252;10.390;2022-10-31T01:27:23;10.70;;;6.40;;
10884;SDS011;5495;53.252;10.390;2022-10-31T01:29:51;8.33;;;5.90;;
10884;SDS011;5495;53.252;10.390;2022-10-31T01:32:20;11.60;;;5.70;;
10884;SDS011;5495;53.252;10.390;2022-10-31T01:34:47;13.90;;;5.40;;
10884;SDS011;5495;53.252;10.390;2022-10-31T01:37:15;12.23;;;5.90;;
10884;SDS011;5495;53.252;10.390;2022-10-31T01:39:42;10.10;;;6.03;;
10884;SDS011;5495;53.252;10.390;2022-10-31T01:42:10;11.17;;;6.80;;
10884;SDS011;5495;53.252;10.390;2022-10-31T01:44:55;10.10;;;5.93;;
10884;SDS011;5495;53.252;10.390;2022-10-31T01:47:32;12.13;;;6.37;;
10884;SDS011;5495;53.252;10.390;2022-10-31T01:50:08;10.10;;;5.57;;
10884;SDS011;5495;53.252;10.390;2022-10-31T01:52:40;13.63;;;5.73;;
10884;SDS011;5495;53.252;10.390;2022-10-31T01:55:10;9.67;;;5.37;;
10884;SDS011;5495;53.252;10.390;2022-10-31T01:57:42;10.70;;;6.00;;
10884;SDS011;5495;53.252;10.390;2022-10-31T02:00:13;14.23;;;6.73;;
10884;SDS011;5495;53.252;10.390;2022-10-31T02:02:42;9.97;;;6.20;;
10884;SDS011;5495;53.252;10.390;2022-10-31T02:05:14;11.03;;;5.83;;
10884;SDS011;5495;53.252;10.390;2022-10-31T02:07:45;8.00;;;5.90;;
10884;SDS011;5495;53.252;10.390;2022-10-31T02:10:20;8.23;;;5.77;;
10884;SDS011;5495;53.252;10.390;2022-10-31T02:12:49;9.77;;;5.63;;
10884;SDS011;5495;53.252;10.390;2022-10-31T02:15:18;12.93;;;6.53;;
10884;SDS011;5495;53.252;10.390;2022-10-31T02:17:47;17.17;;;6.37;;
10884;SDS011;5495;53.252;10.390;2022-10-31T02:20:15;16.17;;;6.10;;
10884;SDS011;5495;53.252;10.390;2022-10-31T02:22:50;13.57;;;6.43;;
10884;SDS011;5495;53.252;10.390;2022-10-31T02:28:49;14.00;;;5.83;;
10884;SDS011;5495;53.252;10.390;2022-10-31T02:31:32;12.27;;;5.93;;
10884;SDS011;5495;53.252;10.390;2022-10-31T02:34:08;10.80;;;5.77;;
10884;SDS011;5495;53.252;10.390;2022-10-31T02:36:46;8.33;;;5.80;;
10884;SDS011;5495;53.252;10.390;2022-10-31T02:39:22;13.53;;;6.17;;
10884;SDS011;5495;53.252;10.390;2022-10-31T02:41:57;9.17;;;6.57;;
10884;SDS011;5495;53.252;10.390;2022-10-31T02:44:31;15.73;;;6.57;;
10884;SDS011;5495;53.252;10.390;2022-10-31T02:47:06;13.67;;;7.20;;
10884;SDS011;5495;53.252;10.390;2022-10-31T02:49:39;12.73;;;6.40;;
10884;SDS011;5495;53.252;10.390;2022-10-31T02:52:18;14.23;;;6.97;;
10884;SDS011;5495;53.252;10.390;2022-10-31T02:54:47;15.43;;;7.90;;
10884;SDS011;5495;53.252;10.390;2022-10-31T02:57:15;12.47;;;7.07;;
10884;SDS011;5495;53.252;10.390;2022-10-31T02:59:46;20.80;;;8.10;;
10884;SDS011;5495;53.252;10.390;2022-10-31T03:02:23;13.80;;;7.03;;
10884;SDS011;5495;53.252;10.390;2022-10-31T03:05:11;14.77;;;9.10;;
10884;SDS011;5495;53.252;10.390;2022-10-31T03:07:56;13.57;;;7.60;;
10884;SDS011;5495;53.252;10.390;2022-10-31T03:10:30;13.70;;;8.57;;
10884;SDS011;5495;53.252;10.390;2022-10-31T03:13:05;20.50;;;8.30;;
10884;SDS011;5495;53.252;10.390;2022-10-31T03:15:37;14.83;;;8.50;;
10884;SDS011;5495;53.252;10.390;2022-10-31T03:18:11;14.87;;;9.17;;
10884;SDS011;5495;53.252;10.390;2022-10-31T03:20:44;16.57;;;9.20;;
10884;SDS011;5495;53.252;10.390;2022-10-31T03:23:17;18.23;;;8.67;;
10884;SDS011;5495;53.252;10.390;2022-10-31T03:25:48;20.67;;;9.53;;
10884;SDS011;5495;53.252;10.390;2022-10-31T03:28:17;18.57;;;9.97;;
10884;SDS011;5495;53.252;10.390;2022-10-31T03:30:50;19.80;;;9.33;;
10884;SDS011;5495;53.252;10.390;2022-10-31T03:33:21;16.93;;;9.57;;
10884;SDS011;5495;53.252;10.390;2022-10-31T03:35:51;17.37;;;10.90;;
10884;SDS011;5495;53.252;10.390;2022-10-31T03:38:22;17.33;;;10.53;;
10884;SDS011;5495;53.252;10.390;2022-10-31T03:40:49;19.87;;;11.13;;
10884;SDS011;5495;53.252;10.390;2022-10-31T03:43:21;18.33;;;11.70;;
10884;SDS011;5495;53.252;10.390;2022-10-31T03:45:52;24.67;;;11.33;;
10884;SDS011;5495;53.252;10.390;2022-10-31T03:48:22;18.40;;;11.20;;
10884;SDS011;5495;53.252;10.390;2022-10-31T03:50:51;26.00;;;13.13;;
10884;SDS011;5495;53.252;10.390;2022-10-31T03:53:26;26.97;;;14.40;;
10884;SDS011;5495;53.252;10.390;2022-10-31T03:55:59;27.53;;;13.60;;
10884;SDS011;5495;53.252;10.390;2022-10-31T03:58:31;23.23;;;12.90;;
10884;SDS011;5495;53.252;10.390;2022-10-31T04:01:02;20.60;;;12.17;;
10884;SDS011;5495;53.252;10.390;2022-10-31T04:03:34;21.77;;;13.20;;
10884;SDS011;5495;53.252;10.390;2022-10-31T04:06:04;27.30;;;13.07;;
10884;SDS011;5495;53.252;10.390;2022-10-31T04:08:36;26.33;;;13.13;;
10884;SDS011;5495;53.252;10.390;2022-10-31T04:11:07;20.50;;;13.20;;
10884;SDS011;5495;53.252;10.390;2022-10-31T04:13:38;21.53;;;12.80;;
10884;SDS011;5495;53.252;10.390;2022-10-31T04:16:08;26.60;;;13.40;;
10884;SDS011;5495;53.252;10.390;2022-10-31T04:18:38;20.10;;;12.43;;
10884;SDS011;5495;53.252;10.390;2022-10-31T04:21:06;25.83;;;14.47;;
10884;SDS011;5495;53.252;10.390;2022-10-31T04:23:34;26.47;;;13.87;;
10884;SDS011;5495;53.252;10.390;2022-10-31T04:26:02;24.93;;;14.27;;
10884;SDS011;5495;53.252;10.390;2022-10-31T04:28:30;25.07;;;14.73;;
10884;SDS011;5495;53.252;10.390;2022-10-31T04:30:59;26.43;;;14.10;;
10884;SDS011;5495;53.252;10.390;2022-10-31T04:33:26;24.03;;;13.33;;
10884;SDS011;5495;53.252;10.390;2022-10-31T04:35:55;22.07;;;13.93;;
10884;SDS011;5495;53.252;10.390;2022-10-31T04:38:23;23.07;;;13.70;;
10884;SDS011;5495;53.252;10.390;2022-10-31T04:40:50;22.97;;;13.70;;
10884;SDS011;5495;53.252;10.390;2022-10-31T04:43:17;19.67;;;13.13;;
10884;SDS011;5495;53.252;10.390;2022-10-31T04:45:45;24.83;;;13.80;;
10884;SDS011;5495;53.252;10.390;2022-10-31T04:48:12;23.63;;;12.90;;
10884;SDS011;5495;53.252;10.390;2022-10-31T04:50:40;21.20;;;13.30;;
10884;SDS011;5495;53.252;10.390;2022-10-31T04:53:09;23.77;;;13.90;;
10884;SDS011;5495;53.252;10.390;2022-10-31T04:55:36;25.27;;;12.80;;
10884;SDS011;5495;53.252;10.390;2022-10-31T04:58:03;21.97;;;13.50;;
10884;SDS011;5495;53.252;10.390;2022-10-31T05:00:31;22.43;;;14.53;;
10884;SDS011;5495;53.252;10.390;2022-10-31T05:02:58;28.13;;;14.80;;
10884;SDS011;5495;53.252;10.390;2022-10-31T05:05:27;23.10;;;13.27;;
10884;SDS011;5495;53.252;10.390;2022-10-31T05:07:55;23.27;;;13.87;;
10884;SDS011;5495;53.252;10.390;2022-10-31T05:10:25;21.70;;;13.33;;
10884;SDS011;5495;53.252;10.390;2022-10-31T05:12:54;25.63;;;13.77;;
10884;SDS011;5495;53.252;10.390;2022-10-31T05:15:23;23.47;;;13.87;;
10884;SDS011;5495;53.252;10.390;2022-10-31T05:17:51;27.50;;;14.10;;
10884;SDS011;5495;53.252;10.390;2022-10-31T05:20:20;21.00;;;12.57;;
10884;SDS011;5495;53.252;10.390;2022-10-31T05:22:49;24.27;;;14.90;;
10884;SDS011;5495;53.252;10.390;2022-10-31T05:25:21;22.37;;;13.43;;
10884;SDS011;5495;53.252;10.390;2022-10-31T05:27:50;22.30;;;13.23;;
10884;SDS011;5495;53.252;10.390;2022-10-31T05:30:19;27.37;;;14.90;;
10884;SDS011;5495;53.252;10.390;2022-10-31T05:32:50;26.33;;;14.67;;
10884;SDS011;5495;53.252;10.390;2022-10-31T05:35:18;29.83;;;16.47;;
10884;SDS011;5495;53.252;10.390;2022-10-31T05:37:46;23.80;;;15.60;;
10884;SDS011;5495;53.252;10.390;2022-10-31T05:40:14;29.83;;;15.03;;
10884;SDS011;5495;53.252;10.390;2022-10-31T05:42:43;27.80;;;16.27;;
10884;SDS011;5495;53.252;10.390;2022-10-31T05:45:13;29.03;;;17.13;;
10884;SDS011;5495;53.252;10.390;2022-10-31T05:47:42;25.87;;;16.93;;
10884;SDS011;5495;53.252;10.390;2022-10-31T05:50:16;21.80;;;15.33;;
10884;SDS011;5495;53.252;10.390;2022-10-31T05:52:43;28.67;;;16.97;;
10884;SDS011;5495;53.252;10.390;2022-10-31T05:55:11;29.40;;;17.67;;
10884;SDS011;5495;53.252;10.390;2022-10-31T05:57:38;25.17;;;14.93;;
10884;SDS011;5495;53.252;10.390;2022-10-31T06:00:06;29.13;;;16.17;;
10884;SDS011;5495;53.252;10.390;2022-10-31T06:02:37;26.20;;;16.00;;
10884;SDS011;5495;53.252;10.390;2022-10-31T06:05:05;25.87;;;16.37;;
10884;SDS011;5495;53.252;10.390;2022-10-31T06:07:33;25.80;;;16.10;;
10884;SDS011;5495;53.252;10.390;2022-10-31T06:10:01;24.93;;;16.50;;
10884;SDS011;5495;53.252;10.390;2022-10-31T06:12:30;26.27;;;16.23;;
10884;SDS011;5495;53.252;10.390;2022-10-31T06:15:02;32.47;;;16.90;;
10884;SDS011;5495;53.252;10.390;2022-10-31T06:17:31;28.43;;;16.00;;
10884;SDS011;5495;53.252;10.390;2022-10-31T06:20:01;28.10;;;15.63;;
10884;SDS011;5495;53.252;10.390;2022-10-31T06:22:29;26.20;;;15.80;;
10884;SDS011;5495;53.252;10.390;2022-10-31T06:24:57;28.97;;;16.13;;
10884;SDS011;5495;53.252;10.390;2022-10-31T06:27:24;26.40;;;15.37;;
10884;SDS011;5495;53.252;10.390;2022-10-31T06:29:52;24.83;;;14.03;;
10884;SDS011;5495;53.252;10.390;2022-10-31T06:32:20;23.70;;;14.87;;
10884;SDS011;5495;53.252;10.390;2022-10-31T06:34:48;24.70;;;15.50;;
10884;SDS011;5495;53.252;10.390;2022-10-31T06:37:17;21.47;;;13.33;;
10884;SDS011;5495;53.252;10.390;2022-10-31T06:39:44;23.77;;;13.33;;
10884;SDS011;5495;53.252;10.390;2022-10-31T06:42:12;27.50;;;15.07;;
10884;SDS011;5495;53.252;10.390;2022-10-31T06:44:41;25.33;;;15.67;;
10884;SDS011;5495;53.252;10.390;2022-10-31T06:47:08;24.03;;;15.23;;
10884;SDS011;5495;53.252;10.390;2022-10-31T06:49:36;23.93;;;13.33;;
10884;SDS011;5495;53.252;10.390;2022-10-31T06:52:04;27.00;;;16.27;;
10884;SDS011;5495;53.252;10.390;2022-10-31T06:54:33;25.93;;;14.87;;
10884;SDS011;5495;53.252;10.390;2022-10-31T06:57:03;25.03;;;15.43;;
10884;SDS011;5495;53.252;10.390;2022-10-31T06:59:31;25.67;;;14.37;;
10884;SDS011;5495;53.252;10.390;2022-10-31T07:01:58;28.53;;;16.03;;
10884;SDS011;5495;53.252;10.390;2022-10-31T07:04:25;33.80;;;15.73;;
10884;SDS011;5495;53.252;10.390;2022-10-31T07:06:53;25.23;;;14.00;;
10884;SDS011;5495;53.252;10.390;2022-10-31T07:09:20;23.80;;;13.67;;
10884;SDS011;5495;53.252;10.390;2022-10-31T07:11:50;29.53;;;15.13;;
10884;SDS011;5495;53.252;10.390;2022-10-31T07:14:18;27.00;;;15.60;;
10884;SDS011;5495;53.252;10.390;2022-10-31T07:16:47;25.37;;;15.20;;
10884;SDS011;5495;53.252;10.390;2022-10-31T07:19:16;23.83;;;14.30;;
10884;SDS011;5495;53.252;10.390;2022-10-31T07:21:43;25.67;;;13.37;;
10884;SDS011;5495;53.252;10.390;2022-10-31T07:24:11;23.87;;;14.40;;
10884;SDS011;5495;53.252;10.390;2022-10-31T07:26:38;27.47;;;14.97;;
10884;SDS011;5495;53.252;10.390;2022-10-31T07:29:08;27.20;;;14.63;;
10884;SDS011;5495;53.252;10.390;2022-10-31T07:31:36;23.07;;;14.60;;
10884;SDS011;5495;53.252;10.390;2022-10-31T07:34:03;25.47;;;14.87;;
10884;SDS011;5495;53.252;10.390;2022-10-31T07:36:31;19.97;;;13.00;;
10884;SDS011;5495;53.252;10.390;2022-10-31T07:38:58;28.27;;;14.13;;
10884;SDS011;5495;53.252;10.390;2022-10-31T07:41:27;27.13;;;13.50;;
10884;SDS011;5495;53.252;10.390;2022-10-31T07:43:54;23.03;;;13.03;;
10884;SDS011;5495;53.252;10.390;2022-10-31T07:46:23;24.27;;;13.67;;
10884;SDS011;5495;53.252;10.390;2022-10-31T07:48:51;24.83;;;14.10;;
10884;SDS011;5495;53.252;10.390;2022-10-31T07:51:18;23.13;;;13.63;;
10884;SDS011;5495;53.252;10.390;2022-10-31T07:53:45;23.90;;;13.40;;
10884;SDS011;5495;53.252;10.390;2022-10-31T07:56:13;20.43;;;13.20;;
10884;SDS011;5495;53.252;10.390;2022-10-31T07:58:40;24.80;;;13.40;;
10884;SDS011;5495;53.252;10.390;2022-10-31T08:01:08;21.43;;;12.83;;
10884;SDS011;5495;53.252;10.390;2022-10-31T08:03:37;23.87;;;12.77;;
10884;SDS011;5495;53.252;10.390;2022-10-31T08:06:04;24.83;;;12.80;;
10884;SDS011;5495;53.252;10.390;2022-10-31T08:08:32;23.70;;;12.50;;
10884;SDS011;5495;53.252;10.390;2022-10-31T08:10:59;25.13;;;12.00;;
10884;SDS011;5495;53.252;10.390;2022-10-31T08:13:27;18.93;;;11.77;;
10884;SDS011;5495;53.252;10.390;2022-10-31T08:15:54;23.70;;;11.83;;
10884;SDS011;5495;53.252;10.390;2022-10-31T08:18:28;23.20;;;11.63;;
10884;SDS011;5495;53.252;10.390;2022-10-31T08:20:57;25.63;;;12.57;;
10884;SDS011;5495;53.252;10.390;2022-10-31T08:23:25;22.87;;;12.73;;
10884;SDS011;5495;53.252;10.390;2022-10-31T08:25:52;21.33;;;12.27;;
10884;SDS011;5495;53.252;10.390;2022-10-31T08:28:20;22.30;;;11.90;;
10884;SDS011;5495;53.252;10.390;2022-10-31T08:30:47;21.87;;;11.83;;
10884;SDS011;5495;53.252;10.390;2022-10-31T08:33:16;22.90;;;11.83;;
10884;SDS011;5495;53.252;10.390;2022-10-31T08:35:44;26.00;;;12.33;;
10884;SDS011;5495;53.252;10.390;2022-10-31T08:38:14;22.97;;;11.33;;
10884;SDS011;5495;53.252;10.390;2022-10-31T08:40:41;21.47;;;11.97;;
10884;SDS011;5495;53.252;10.390;2022-10-31T08:43:11;23.00;;;12.33;;
10884;SDS011;5495;53.252;10.390;2022-10-31T08:45:39;22.17;;;12.40;;
10884;SDS011;5495;53.252;10.390;2022-10-31T08:48:09;22.77;;;11.33;;
10884;SDS011;5495;53.252;10.390;2022-10-31T08:50:37;18.37;;;11.03;;
10884;SDS011;5495;53.252;10.390;2022-10-31T08:53:06;21.17;;;12.20;;
10884;SDS011;5495;53.252;10.390;2022-10-31T08:55:37;21.50;;;10.80;;
10884;SDS011;5495;53.252;10.390;2022-10-31T08:58:06;22.80;;;11.43;;
10884;SDS011;5495;53.252;10.390;2022-10-31T09:00:36;20.63;;;10.77;;
10884;SDS011;5495;53.252;10.390;2022-10-31T09:03:04;21.13;;;11.73;;
10884;SDS011;5495;53.252;10.390;2022-10-31T09:05:35;19.87;;;11.23;;
10884;SDS011;5495;53.252;10.390;2022-10-31T09:08:04;21.80;;;11.40;;
10884;SDS011;5495;53.252;10.390;2022-10-31T09:10:32;18.73;;;11.60;;
10884;SDS011;5495;53.252;10.390;2022-10-31T09:13:04;23.23;;;12.23;;
10884;SDS011;5495;53.252;10.390;2022-10-31T09:15:32;21.80;;;11.30;;
10884;SDS011;5495;53.252;10.390;2022-10-31T09:18:01;22.90;;;10.80;;
10884;SDS011;5495;53.252;10.390;2022-10-31T09:20:28;20.40;;;9.83;;
10884;SDS011;5495;53.252;10.390;2022-10-31T09:22:57;19.23;;;11.33;;
10884;SDS011;5495;53.252;10.390;2022-10-31T09:25:25;18.47;;;9.83;;
10884;SDS011;5495;53.252;10.390;2022-10-31T09:27:55;21.63;;;10.47;;
10884;SDS011;5495;53.252;10.390;2022-10-31T09:30:25;22.77;;;9.83;;
10884;SDS011;5495;53.252;10.390;2022-10-31T09:32:54;18.13;;;10.33;;
10884;SDS011;5495;53.252;10.390;2022-10-31T09:35:22;20.43;;;9.97;;
10884;SDS011;5495;53.252;10.390;2022-10-31T09:37:53;18.07;;;9.03;;
10884;SDS011;5495;53.252;10.390;2022-10-31T09:40:21;15.77;;;9.10;;
10884;SDS011;5495;53.252;10.390;2022-10-31T09:42:54;15.77;;;8.87;;
10884;SDS011;5495;53.252;10.390;2022-10-31T09:45:29;14.97;;;9.33;;
10884;SDS011;5495;53.252;10.390;2022-10-31T09:50:56;14.20;;;9.40;;
10884;SDS011;5495;53.252;10.390;2022-10-31T09:53:31;16.30;;;8.83;;
10884;SDS011;5495;53.252;10.390;2022-10-31T09:56:04;17.07;;;8.87;;
10884;SDS011;5495;53.252;10.390;2022-10-31T09:58:48;15.57;;;8.50;;
10884;SDS011;5495;53.252;10.390;2022-10-31T10:01:28;18.17;;;9.63;;
10884;SDS011;5495;53.252;10.390;2022-10-31T10:04:01;17.60;;;8.93;;
10884;SDS011;5495;53.252;10.390;2022-10-31T10:06:35;16.70;;;8.87;;
10884;SDS011;5495;53.252;10.390;2022-10-31T10:09:08;13.97;;;8.37;;
10884;SDS011;5495;53.252;10.390;2022-10-31T10:11:40;15.03;;;7.53;;
10884;SDS011;5495;53.252;10.390;2022-10-31T10:17:16;15.90;;;8.30;;
10884;SDS011;5495;53.252;10.390;2022-10-31T10:19:56;17.63;;;7.63;;
10884;SDS011;5495;53.252;10.390;2022-10-31T10:22:50;16.20;;;7.27;;
10884;SDS011;5495;53.252;10.390;2022-10-31T10:25:26;13.37;;;7.97;;
10884;SDS011;5495;53.252;10.390;2022-10-31T10:28:02;16.17;;;8.20;;
10884;SDS011;5495;53.252;10.390;2022-10-31T10:30:39;12.47;;;8.13;;
10884;SDS011;5495;53.252;10.390;2022-10-31T10:33:11;12.77;;;7.33;;
10884;SDS011;5495;53.252;10.390;2022-10-31T10:35:41;14.50;;;7.90;;
10884;SDS011;5495;53.252;10.390;2022-10-31T10:38:14;15.00;;;8.10;;
10884;SDS011;5495;53.252;10.390;2022-10-31T10:40:45;12.67;;;7.27;;
10884;SDS011;5495;53.252;10.390;2022-10-31T10:43:24;12.73;;;7.17;;
10884;SDS011;5495;53.252;10.390;2022-10-31T10:46:12;11.83;;;6.37;;
10884;SDS011;5495;53.252;10.390;2022-10-31T10:49:10;12.53;;;6.33;;
10884;SDS011;5495;53.252;10.390;2022-10-31T10:51:44;9.40;;;5.43;;
10884;SDS011;5495;53.252;10.390;2022-10-31T10:57:27;9.63;;;5.33;;
10884;SDS011;5495;53.252;10.390;2022-10-31T11:00:12;10.63;;;5.37;;
10884;SDS011;5495;53.252;10.390;2022-10-31T11:02:44;6.10;;;4.00;;
10884;SDS011;5495;53.252;10.390;2022-10-31T11:05:17;10.10;;;5.37;;
10884;SDS011;5495;53.252;10.390;2022-10-31T11:07:50;8.40;;;4.40;;
10884;SDS011;5495;53.252;10.390;2022-10-31T11:10:20;8.07;;;4.90;;
10884;SDS011;5495;53.252;10.390;2022-10-31T11:12:58;10.30;;;5.03;;
10884;SDS011;5495;53.252;10.390;2022-10-31T11:25:32;8.47;;;5.13;;
10884;SDS011;5495;53.252;10.390;2022-10-31T11:28:00;11.80;;;5.30;;
10884;SDS011;5495;53.252;10.390;2022-10-31T11:30:28;9.40;;;5.67;;
10884;SDS011;5495;53.252;10.390;2022-10-31T11:32:57;11.87;;;5.80;;
10884;SDS011;5495;53.252;10.390;2022-10-31T11:35:25;8.70;;;5.60;;
10884;SDS011;5495;53.252;10.390;2022-10-31T11:37:53;7.23;;;4.73;;
10884;SDS011;5495;53.252;10.390;2022-10-31T11:40:25;7.97;;;4.80;;
10884;SDS011;5495;53.252;10.390;2022-10-31T11:43:05;10.67;;;4.97;;
10884;SDS011;5495;53.252;10.390;2022-10-31T11:45:42;7.80;;;5.00;;
10884;SDS011;5495;53.252;10.390;2022-10-31T11:48:15;12.07;;;5.30;;
10884;SDS011;5495;53.252;10.390;2022-10-31T11:50:47;9.27;;;4.80;;
10884;SDS011;5495;53.252;10.390;2022-10-31T11:53:19;9.03;;;5.53;;
10884;SDS011;5495;53.252;10.390;2022-10-31T11:55:59;8.57;;;4.60;;
10884;SDS011;5495;53.252;10.390;2022-10-31T12:01:32;7.60;;;5.27;;
10884;SDS011;5495;53.252;10.390;2022-10-31T12:04:02;8.93;;;4.50;;
10884;SDS011;5495;53.252;10.390;2022-10-31T12:06:45;6.90;;;4.27;;
10884;SDS011;5495;53.252;10.390;2022-10-31T12:09:36;6.17;;;3.90;;
10884;SDS011;5495;53.252;10.390;2022-10-31T12:12:20;10.97;;;4.50;;
10884;SDS011;5495;53.252;10.390;2022-10-31T12:15:09;7.80;;;3.67;;
10884;SDS011;5495;53.252;10.390;2022-10-31T12:21:44;6.20;;;3.80;;
10884;SDS011;5495;53.252;10.390;2022-10-31T12:24:33;7.13;;;4.17;;
10884;SDS011;5495;53.252;10.390;2022-10-31T12:27:10;12.47;;;4.27;;
10884;SDS011;5495;53.252;10.390;2022-10-31T12:32:55;7.57;;;4.00;;
10884;SDS011;5495;53.252;10.390;2022-10-31T12:35:40;8.47;;;4.27;;
10884;SDS011;5495;53.252;10.390;2022-10-31T12:38:30;8.73;;;3.93;;
10884;SDS011;5495;53.252;10.390;2022-10-31T12:41:20;9.47;;;4.53;;
10884;SDS011;5495;53.252;10.390;2022-10-31T12:44:14;7.60;;;4.07;;
10884;SDS011;5495;53.252;10.390;2022-10-31T12:46:59;5.57;;;3.80;;
10884;SDS011;5495;53.252;10.390;2022-10-31T12:49:50;8.40;;;3.30;;
10884;SDS011;5495;53.252;10.390;2022-10-31T12:52:28;6.87;;;3.87;;
10884;SDS011;5495;53.252;10.390;2022-10-31T12:55:24;9.80;;;3.40;;
10884;SDS011;5495;53.252;10.390;2022-10-31T12:58:04;6.27;;;3.40;;
10884;SDS011;5495;53.252;10.390;2022-10-31T13:00:37;10.20;;;3.40;;
10884;SDS011;5495;53.252;10.390;2022-10-31T13:03:14;5.77;;;3.23;;
10884;SDS011;5495;53.252;10.390;2022-10-31T13:05:54;5.63;;;3.40;;
10884;SDS011;5495;53.252;10.390;2022-10-31T13:08:28;7.40;;;3.20;;
10884;SDS011;5495;53.252;10.390;2022-10-31T13:11:03;7.67;;;4.10;;
10884;SDS011;5495;53.252;10.390;2022-10-31T13:13:37;6.13;;;3.60;;
10884;SDS011;5495;53.252;10.390;2022-10-31T13:16:11;8.27;;;3.93;;
10884;SDS011;5495;53.252;10.390;2022-10-31T13:18:51;5.40;;;4.00;;
10884;SDS011;5495;53.252;10.390;2022-10-31T13:21:22;8.70;;;4.30;;
10884;SDS011;5495;53.252;10.390;2022-10-31T13:23:57;9.63;;;3.77;;
10884;SDS011;5495;53.252;10.390;2022-10-31T13:26:32;7.40;;;3.97;;
10884;SDS011;5495;53.252;10.390;2022-10-31T13:29:05;6.03;;;3.50;;
10884;SDS011;5495;53.252;10.390;2022-10-31T13:31:39;6.00;;;3.57;;
10884;SDS011;5495;53.252;10.390;2022-10-31T13:34:15;5.77;;;3.53;;
10884;SDS011;5495;53.252;10.390;2022-10-31T13:36:55;6.93;;;3.70;;
10884;SDS011;5495;53.252;10.390;2022-10-31T13:39:33;6.73;;;3.73;;
10884;SDS011;5495;53.252;10.390;2022-10-31T13:42:14;6.43;;;3.97;;
10884;SDS011;5495;53.252;10.390;2022-10-31T13:44:46;7.70;;;4.07;;
10884;SDS011;5495;53.252;10.390;2022-10-31T13:47:24;7.27;;;3.50;;
10884;SDS011;5495;53.252;10.390;2022-10-31T13:50:04;7.33;;;3.90;;
10884;SDS011;5495;53.252;10.390;2022-10-31T13:52:45;7.07;;;4.03;;
10884;SDS011;5495;53.252;10.390;2022-10-31T13:55:41;9.80;;;4.93;;
10884;SDS011;5495;53.252;10.390;2022-10-31T13:58:22;9.50;;;4.90;;
10884;SDS011;5495;53.252;10.390;2022-10-31T14:00:58;8.33;;;4.40;;
10884;SDS011;5495;53.252;10.390;2022-10-31T14:03:35;9.37;;;4.80;;
10884;SDS011;5495;53.252;10.390;2022-10-31T14:06:06;7.33;;;4.33;;
10884;SDS011;5495;53.252;10.390;2022-10-31T14:08:36;7.73;;;4.07;;
10884;SDS011;5495;53.252;10.390;2022-10-31T14:11:19;7.23;;;3.80;;
10884;SDS011;5495;53.252;10.390;2022-10-31T14:13:54;6.70;;;3.97;;
10884;SDS011;5495;53.252;10.390;2022-10-31T14:16:24;7.87;;;4.00;;
10884;SDS011;5495;53.252;10.390;2022-10-31T14:18:57;11.27;;;4.30;;
10884;SDS011;5495;53.252;10.390;2022-10-31T14:21:37;7.90;;;3.83;;
10884;SDS011;5495;53.252;10.390;2022-10-31T14:24:14;10.63;;;4.40;;
10884;SDS011;5495;53.252;10.390;2022-10-31T14:26:56;8.03;;;3.97;;
10884;SDS011;5495;53.252;10.390;2022-10-31T14:29:26;6.63;;;3.70;;
10884;SDS011;5495;53.252;10.390;2022-10-31T14:31:59;5.77;;;4.40;;
10884;SDS011;5495;53.252;10.390;2022-10-31T14:34:37;8.57;;;4.47;;
10884;SDS011;5495;53.252;10.390;2022-10-31T14:37:23;7.57;;;4.70;;
10884;SDS011;5495;53.252;10.390;2022-10-31T14:40:21;6.77;;;4.10;;
10884;SDS011;5495;53.252;10.390;2022-10-31T14:43:03;7.73;;;4.07;;
10884;SDS011;5495;53.252;10.390;2022-10-31T14:45:47;8.53;;;4.20;;
10884;SDS011;5495;53.252;10.390;2022-10-31T14:48:32;7.40;;;4.60;;
10884;SDS011;5495;53.252;10.390;2022-10-31T14:51:12;9.17;;;4.80;;
10884;SDS011;5495;53.252;10.390;2022-10-31T14:53:46;9.60;;;4.67;;
10884;SDS011;5495;53.252;10.390;2022-10-31T14:56:19;8.27;;;4.87;;
10884;SDS011;5495;53.252;10.390;2022-10-31T14:58:50;8.37;;;5.07;;
10884;SDS011;5495;53.252;10.390;2022-10-31T15:01:21;10.00;;;5.20;;
10884;SDS011;5495;53.252;10.390;2022-10-31T15:03:50;10.27;;;5.23;;
10884;SDS011;5495;53.252;10.390;2022-10-31T15:06:19;7.53;;;4.87;;
10884;SDS011;5495;53.252;10.390;2022-10-31T15:08:53;10.87;;;5.73;;
10884;SDS011;5495;53.252;10.390;2022-10-31T15:11:21;11.43;;;5.27;;
10884;SDS011;5495;53.252;10.390;2022-10-31T15:13:54;9.13;;;6.00;;
10884;SDS011;5495;53.252;10.390;2022-10-31T15:16:25;11.33;;;6.00;;
10884;SDS011;5495;53.252;10.390;2022-10-31T15:18:58;10.67;;;6.20;;
10884;SDS011;5495;53.252;10.390;2022-10-31T15:21:31;10.20;;;5.20;;
10884;SDS011;5495;53.252;10.390;2022-10-31T15:24:01;8.43;;;4.87;;
10884;SDS011;5495;53.252;10.390;2022-10-31T15:26:30;9.33;;;5.23;;
10884;SDS011;5495;53.252;10.390;2022-10-31T15:29:00;7.20;;;4.90;;
10884;SDS011;5495;53.252;10.390;2022-10-31T15:31:28;8.30;;;5.03;;
10884;SDS011;5495;53.252;10.390;2022-10-31T15:34:13;10.23;;;5.17;;